createdAt,value
2018-12-04T00:00:05.184Z,0.90
2018-12-04T00:02:33.851Z,0.93
2018-12-04T00:05:02.273Z,1.37
2018-12-04T00:07:30.748Z,0.93
2018-12-04T00:09:59.035Z,1.07
2018-12-04T00:12:27.404Z,0.73
2018-12-04T00:14:55.868Z,0.93
2018-12-04T00:17:24.264Z,1.73
2018-12-04T00:19:52.750Z,0.87
2018-12-04T00:22:21.032Z,1.53
2018-12-04T00:24:49.421Z,0.80
2018-12-04T00:27:17.776Z,0.90
2018-12-04T00:29:46.187Z,0.47
2018-12-04T00:32:14.588Z,0.60
2018-12-04T00:34:42.988Z,0.57
2018-12-04T00:37:11.360Z,0.80
2018-12-04T00:39:39.765Z,0.70
2018-12-04T00:42:08.334Z,0.63
2018-12-04T00:44:36.770Z,0.67
2018-12-04T00:47:05.160Z,0.50
2018-12-04T00:49:33.810Z,0.73
2018-12-04T00:52:02.184Z,0.87
2018-12-04T00:54:30.917Z,0.80
2018-12-04T00:56:59.279Z,0.90
2018-12-04T00:59:27.674Z,1.50
2018-12-04T01:01:56.355Z,0.90
2018-12-04T01:04:24.985Z,1.30
2018-12-04T01:06:53.241Z,0.70
2018-12-04T01:09:21.645Z,1.73
2018-12-04T01:11:50.443Z,1.50
2018-12-04T01:14:18.946Z,1.43
2018-12-04T01:16:47.399Z,1.23
2018-12-04T01:19:15.776Z,2.10
2018-12-04T01:21:44.257Z,0.90
2018-12-04T01:24:12.643Z,1.20
2018-12-04T01:26:41.144Z,0.90
2018-12-04T01:29:09.513Z,1.37
2018-12-04T01:31:38.538Z,1.10
2018-12-04T01:34:07.200Z,1.00
2018-12-04T01:36:35.854Z,1.23
2018-12-04T01:39:05.876Z,1.03
2018-12-04T01:41:34.393Z,1.00
2018-12-04T01:44:02.837Z,1.07
2018-12-04T01:46:31.462Z,1.73
2018-12-04T01:49:00.380Z,0.87
2018-12-04T01:51:28.901Z,0.80
2018-12-04T01:53:57.792Z,1.20
2018-12-04T01:56:26.195Z,1.10
2018-12-04T01:58:54.571Z,1.07
2018-12-04T02:01:23.228Z,1.50
2018-12-04T02:03:51.524Z,2.30
2018-12-04T02:06:20.284Z,2.10
2018-12-04T02:08:48.787Z,1.60
2018-12-04T02:11:17.268Z,1.30
2018-12-04T02:13:46.168Z,1.90
2018-12-04T02:16:14.570Z,1.30
2018-12-04T02:18:42.933Z,1.10
2018-12-04T02:21:11.314Z,1.40
2018-12-04T02:23:39.613Z,1.00
2018-12-04T02:26:08.086Z,1.27
2018-12-04T02:28:42.552Z,1.20
2018-12-04T02:31:11.251Z,1.30
2018-12-04T02:33:39.627Z,1.43
2018-12-04T02:36:08.006Z,1.40
2018-12-04T02:38:36.744Z,1.03
2018-12-04T02:41:05.169Z,1.40
2018-12-04T02:43:33.908Z,1.30
2018-12-04T02:46:02.385Z,1.57
2018-12-04T02:48:30.845Z,1.43
2018-12-04T02:50:59.124Z,1.47
2018-12-04T02:53:27.484Z,1.30
2018-12-04T02:55:55.911Z,1.43
2018-12-04T02:58:24.920Z,1.60
2018-12-04T03:00:53.613Z,1.23
2018-12-04T03:03:21.897Z,1.40
2018-12-04T03:05:50.294Z,1.47
2018-12-04T03:08:19.045Z,1.43
2018-12-04T03:11:26.290Z,2.43
2018-12-04T03:13:53.683Z,2.10
2018-12-04T03:16:21.091Z,2.20
2018-12-04T03:18:48.548Z,2.60
2018-12-04T03:21:15.951Z,2.53
2018-12-04T03:23:43.357Z,2.90
2018-12-04T03:26:10.769Z,2.70
2018-12-04T03:28:38.194Z,2.60
2018-12-04T03:31:05.595Z,3.20
2018-12-04T03:33:36.109Z,3.30
2018-12-04T03:36:03.654Z,3.40
2018-12-04T03:38:31.183Z,3.50
2018-12-04T03:40:58.603Z,3.40
2018-12-04T03:43:26.022Z,3.20
2018-12-04T03:45:53.443Z,3.07
2018-12-04T03:48:20.901Z,2.90
2018-12-04T03:50:48.347Z,3.13
2018-12-04T03:53:15.743Z,3.20
2018-12-04T03:55:43.140Z,4.00
2018-12-04T03:58:10.555Z,3.87
2018-12-04T04:00:37.945Z,4.03
2018-12-04T04:03:05.375Z,3.10
2018-12-04T04:05:32.764Z,4.27
2018-12-04T04:08:00.211Z,4.47
2018-12-04T04:10:27.634Z,6.47
2018-12-04T04:12:55.024Z,5.10
2018-12-04T04:15:22.581Z,4.40
2018-12-04T04:17:50.171Z,3.40
2018-12-04T04:20:17.593Z,3.07
2018-12-04T04:22:45.050Z,2.50
2018-12-04T04:25:12.499Z,3.13
2018-12-04T04:27:39.923Z,3.03
2018-12-04T04:30:07.446Z,2.80
2018-12-04T04:32:34.972Z,2.73
2018-12-04T04:35:02.495Z,2.63
2018-12-04T04:37:29.901Z,2.63
2018-12-04T04:39:57.342Z,3.70
2018-12-04T04:42:24.733Z,2.80
2018-12-04T04:44:52.177Z,2.50
2018-12-04T04:47:19.565Z,2.90
2018-12-04T04:49:46.961Z,2.67
2018-12-04T04:52:14.372Z,3.10
2018-12-04T04:54:41.766Z,2.77
2018-12-04T04:57:09.175Z,2.80
2018-12-04T04:59:36.581Z,1.87
2018-12-04T05:02:04.179Z,2.47
2018-12-04T05:04:31.588Z,2.60
2018-12-04T05:06:59.003Z,2.17
2018-12-04T05:09:26.394Z,2.43
2018-12-04T05:11:53.819Z,2.47
2018-12-04T05:14:21.236Z,2.20
2018-12-04T05:16:48.680Z,2.40
2018-12-04T05:19:16.082Z,2.40
2018-12-04T05:21:43.485Z,2.97
2018-12-04T05:24:10.934Z,2.87
2018-12-04T05:26:38.342Z,3.50
2018-12-04T05:29:05.759Z,4.03
2018-12-04T05:31:33.153Z,4.13
2018-12-04T05:34:00.632Z,3.20
2018-12-04T05:36:28.059Z,3.10
2018-12-04T05:38:55.467Z,3.00
2018-12-04T05:41:22.887Z,2.83
2018-12-04T05:43:50.271Z,3.50
2018-12-04T05:46:17.667Z,2.73
2018-12-04T05:48:45.046Z,3.07
2018-12-04T05:51:12.475Z,3.50
2018-12-04T05:53:39.911Z,2.83
2018-12-04T05:56:08.918Z,3.47
2018-12-04T05:58:36.360Z,3.27
2018-12-04T06:01:03.783Z,3.13
2018-12-04T06:03:31.201Z,3.10
2018-12-04T06:05:58.653Z,3.10
2018-12-04T06:08:26.073Z,2.70
2018-12-04T06:10:53.506Z,2.60
2018-12-04T06:13:21.009Z,3.50
2018-12-04T06:15:48.420Z,2.90
2018-12-04T06:18:15.836Z,3.57
2018-12-04T06:20:43.302Z,3.10
2018-12-04T06:23:10.711Z,2.90
2018-12-04T06:25:38.124Z,3.13
2018-12-04T06:28:05.548Z,3.87
2018-12-04T06:30:33.008Z,3.70
2018-12-04T06:33:00.458Z,3.53
2018-12-04T06:35:27.898Z,3.70
2018-12-04T06:37:55.323Z,3.33
2018-12-04T06:40:22.939Z,3.10
2018-12-04T06:42:50.387Z,3.00
2018-12-04T06:45:17.830Z,3.27
2018-12-04T06:47:45.262Z,3.43
2018-12-04T06:50:12.805Z,2.67
2018-12-04T06:52:40.241Z,2.70
2018-12-04T06:55:08.131Z,3.53
2018-12-04T06:57:35.715Z,2.27
2018-12-04T07:00:03.832Z,2.83
2018-12-04T07:02:31.279Z,2.73
2018-12-04T07:04:58.713Z,2.47
2018-12-04T07:07:26.120Z,2.00
2018-12-04T07:09:53.571Z,4.07
2018-12-04T07:12:21.110Z,1.60
2018-12-04T07:14:48.535Z,1.97
2018-12-04T07:17:15.942Z,2.00
2018-12-04T07:19:43.388Z,2.30
2018-12-04T07:22:10.848Z,2.40
2018-12-04T07:24:38.256Z,2.53
2018-12-04T07:27:05.688Z,2.07
2018-12-04T07:29:33.077Z,1.80
2018-12-04T07:32:00.463Z,1.93
2018-12-04T07:34:27.909Z,1.83
2018-12-04T07:36:55.325Z,2.00
2018-12-04T07:39:22.755Z,2.53
2018-12-04T07:41:50.189Z,2.10
2018-12-04T07:44:17.593Z,2.30
2018-12-04T07:46:45.037Z,2.00
2018-12-04T07:49:12.463Z,2.10
2018-12-04T07:51:39.903Z,1.90
2018-12-04T07:54:07.302Z,1.93
2018-12-04T07:56:34.810Z,1.87
2018-12-04T07:59:02.301Z,1.90
2018-12-04T08:01:29.713Z,2.33
2018-12-04T08:03:57.126Z,2.37
2018-12-04T08:06:24.562Z,2.20
2018-12-04T08:08:52.001Z,2.00
2018-12-04T08:11:19.444Z,2.67
2018-12-04T08:13:46.833Z,2.47
2018-12-04T08:16:14.287Z,2.30
2018-12-04T08:18:41.730Z,2.10
2018-12-04T08:21:09.154Z,2.37
2018-12-04T08:23:36.619Z,1.97
2018-12-04T08:26:04.040Z,2.23
2018-12-04T08:28:31.451Z,2.37
2018-12-04T08:30:58.855Z,2.07
2018-12-04T08:33:26.274Z,1.80
2018-12-04T08:35:53.750Z,1.90
2018-12-04T08:38:21.162Z,1.97
2018-12-04T08:40:48.588Z,2.03
2018-12-04T08:43:16.029Z,2.03
2018-12-04T08:45:43.480Z,2.13
2018-12-04T08:48:11.035Z,2.80
2018-12-04T08:50:38.458Z,1.70
2018-12-04T08:53:05.863Z,1.80
2018-12-04T08:55:33.285Z,1.90
2018-12-04T08:58:00.683Z,1.70
2018-12-04T09:00:28.105Z,2.50
2018-12-04T09:02:55.561Z,1.87
2018-12-04T09:05:22.969Z,1.70
2018-12-04T09:07:50.490Z,1.70
2018-12-04T09:10:17.926Z,1.40
2018-12-04T09:12:45.426Z,1.60
2018-12-04T09:15:12.808Z,1.77
2018-12-04T09:17:40.220Z,1.50
2018-12-04T09:20:07.938Z,1.43
2018-12-04T09:22:35.739Z,1.90
2018-12-04T09:25:03.500Z,2.60
2018-12-04T09:27:31.005Z,2.33
2018-12-04T09:29:58.547Z,2.00
2018-12-04T09:32:26.070Z,1.80
2018-12-04T09:34:53.491Z,1.83
2018-12-04T09:37:20.888Z,1.63
2018-12-04T09:39:48.300Z,1.83
2018-12-04T09:42:15.737Z,2.10
2018-12-04T09:44:43.140Z,1.50
2018-12-04T09:47:10.547Z,2.10
2018-12-04T09:49:37.916Z,1.87
2018-12-04T09:52:05.325Z,1.50
2018-12-04T09:54:32.734Z,1.63
2018-12-04T09:57:00.133Z,2.00
2018-12-04T09:59:27.558Z,1.60
2018-12-04T10:01:55.007Z,1.70
2018-12-04T10:04:22.426Z,1.70
2018-12-04T10:06:49.916Z,1.37
2018-12-04T10:09:17.347Z,1.67
2018-12-04T10:11:44.769Z,2.33
2018-12-04T10:14:12.236Z,2.07
2018-12-04T10:16:39.643Z,1.43
2018-12-04T10:19:07.069Z,1.90
2018-12-04T10:21:34.884Z,2.20
2018-12-04T10:24:02.290Z,1.27
2018-12-04T10:26:29.704Z,2.30
2018-12-04T10:28:57.141Z,1.77
2018-12-04T10:31:24.578Z,1.50
2018-12-04T10:33:51.973Z,1.47
2018-12-04T10:36:19.418Z,1.67
2018-12-04T10:38:46.840Z,1.57
2018-12-04T10:41:14.233Z,1.43
2018-12-04T10:43:41.670Z,2.47
2018-12-04T10:46:09.079Z,1.50
2018-12-04T10:48:36.512Z,1.43
2018-12-04T10:51:03.954Z,1.30
2018-12-04T10:53:31.376Z,2.10
2018-12-04T10:55:58.784Z,2.03
2018-12-04T10:58:26.206Z,1.40
2018-12-04T11:00:54.495Z,1.73
2018-12-04T11:03:27.524Z,1.70
2018-12-04T11:05:54.950Z,1.60
2018-12-04T11:08:22.368Z,2.17
2018-12-04T11:10:49.777Z,2.03
2018-12-04T11:13:17.180Z,1.80
2018-12-04T11:15:44.601Z,11.57
2018-12-04T11:18:11.998Z,1.50
2018-12-04T11:20:39.446Z,1.80
2018-12-04T11:23:06.901Z,1.50
2018-12-04T11:25:34.307Z,1.10
2018-12-04T11:28:01.719Z,3.60
2018-12-04T11:30:29.150Z,1.60
2018-12-04T11:32:56.563Z,1.23
2018-12-04T11:35:23.987Z,1.70
2018-12-04T11:37:51.391Z,1.37
2018-12-04T11:40:18.923Z,1.60
2018-12-04T11:42:46.353Z,1.37
2018-12-04T11:45:13.768Z,1.60
2018-12-04T11:47:41.321Z,1.30
2018-12-04T11:50:08.786Z,1.35
2018-12-04T11:52:36.240Z,1.50
2018-12-04T11:55:03.691Z,1.27
2018-12-04T11:57:31.127Z,1.05
2018-12-04T11:59:58.564Z,1.00
2018-12-04T12:02:25.949Z,1.60
2018-12-04T12:04:53.397Z,0.97
2018-12-04T12:07:20.781Z,1.00
2018-12-04T12:09:48.207Z,1.20
2018-12-04T12:12:15.612Z,1.27
2018-12-04T12:14:43.002Z,1.50
2018-12-04T12:17:10.431Z,1.20
2018-12-04T12:19:37.827Z,1.27
2018-12-04T12:22:05.238Z,1.60
2018-12-04T12:24:32.692Z,1.20
2018-12-04T12:27:00.137Z,1.20
2018-12-04T12:29:27.595Z,1.20
2018-12-04T12:31:54.987Z,2.30
2018-12-04T12:34:23.604Z,1.07
2018-12-04T12:36:51.201Z,1.10
2018-12-04T12:39:18.635Z,1.27
2018-12-04T12:41:46.061Z,1.43
2018-12-04T12:44:13.496Z,1.33
2018-12-04T12:46:40.926Z,1.43
2018-12-04T12:49:08.311Z,1.00
2018-12-04T12:51:35.821Z,1.17
2018-12-04T12:54:03.348Z,1.23
2018-12-04T12:56:30.755Z,1.27
2018-12-04T12:58:58.210Z,1.47
2018-12-04T13:01:25.632Z,1.80
2018-12-04T13:03:53.016Z,1.50
2018-12-04T13:06:20.458Z,1.10
2018-12-04T13:08:47.873Z,1.10
2018-12-04T13:11:15.294Z,0.87
2018-12-04T13:13:42.721Z,1.13
2018-12-04T13:16:10.120Z,1.27
2018-12-04T13:18:37.528Z,0.90
2018-12-04T13:21:04.950Z,1.77
2018-12-04T13:23:32.364Z,1.03
2018-12-04T13:25:59.745Z,1.20
2018-12-04T13:28:27.175Z,0.83
2018-12-04T13:30:54.644Z,1.10
2018-12-04T13:33:22.175Z,1.73
2018-12-04T13:35:49.613Z,1.00
2018-12-04T13:38:17.047Z,1.93
2018-12-04T13:40:44.643Z,1.13
2018-12-04T13:43:12.070Z,1.50
2018-12-04T13:45:39.482Z,1.27
2018-12-04T13:48:06.915Z,1.40
2018-12-04T13:50:34.335Z,1.13
2018-12-04T13:53:01.811Z,0.90
2018-12-04T13:55:29.227Z,1.40
2018-12-04T13:57:56.631Z,1.40
2018-12-04T14:00:24.171Z,0.97
2018-12-04T14:02:51.609Z,1.10
2018-12-04T14:05:19.025Z,1.33
2018-12-04T14:07:46.477Z,1.80
2018-12-04T14:10:13.942Z,1.10
2018-12-04T14:12:41.368Z,1.00
2018-12-04T14:15:08.946Z,1.40
2018-12-04T14:17:36.423Z,1.30
2018-12-04T14:20:04.874Z,1.43
2018-12-04T14:22:32.385Z,1.53
2018-12-04T14:24:59.814Z,1.03
2018-12-04T14:27:27.309Z,1.30
2018-12-04T14:29:54.872Z,1.50
2018-12-04T14:32:22.317Z,1.33
2018-12-04T14:34:49.766Z,1.83
2018-12-04T14:37:17.301Z,2.20
2018-12-04T14:39:44.836Z,1.90
2018-12-04T14:42:12.307Z,2.40
2018-12-04T14:44:39.834Z,2.20
2018-12-04T14:47:07.293Z,2.10
2018-12-04T14:49:34.854Z,2.13
2018-12-04T14:52:02.321Z,2.50
2018-12-04T14:54:29.787Z,2.83
2018-12-04T14:56:57.334Z,2.33
2018-12-04T14:59:24.839Z,1.97
2018-12-04T15:01:52.339Z,2.47
2018-12-04T15:04:19.849Z,1.77
2018-12-04T15:06:47.250Z,2.37
2018-12-04T15:09:16.450Z,2.53
2018-12-04T15:11:43.881Z,2.90
2018-12-04T15:14:11.506Z,2.40
2018-12-04T15:16:38.950Z,2.47
2018-12-04T15:19:06.466Z,3.10
2018-12-04T15:21:33.951Z,2.87
2018-12-04T15:24:01.384Z,1.50
2018-12-04T15:26:28.810Z,1.67
2018-12-04T15:28:56.331Z,1.50
2018-12-04T15:31:23.785Z,2.00
2018-12-04T15:33:51.208Z,2.23
2018-12-04T15:36:18.638Z,2.00
2018-12-04T15:38:46.064Z,2.10
2018-12-04T15:41:13.636Z,1.80
2018-12-04T15:43:41.096Z,1.90
2018-12-04T15:46:08.621Z,2.10
2018-12-04T15:48:36.357Z,2.30
2018-12-04T15:51:03.963Z,1.70
2018-12-04T15:53:31.461Z,2.47
2018-12-04T15:55:58.892Z,2.40
2018-12-04T15:58:26.359Z,2.07
2018-12-04T16:00:53.784Z,3.17
2018-12-04T16:03:21.266Z,2.40
2018-12-04T16:05:48.695Z,2.53
2018-12-04T16:08:25.511Z,2.13
2018-12-04T16:10:52.933Z,2.37
2018-12-04T16:13:20.365Z,2.10
2018-12-04T16:15:47.838Z,2.30
2018-12-04T16:18:15.250Z,2.30
2018-12-04T16:20:42.689Z,3.43
2018-12-04T16:23:10.281Z,2.80
2018-12-04T16:25:37.720Z,2.40
2018-12-04T16:28:05.183Z,2.37
2018-12-04T16:30:32.642Z,2.30
2018-12-04T16:33:01.037Z,2.77
2018-12-04T16:35:28.447Z,2.97
2018-12-04T16:37:55.895Z,2.37
2018-12-04T16:40:23.306Z,3.10
2018-12-04T16:42:50.753Z,2.73
2018-12-04T16:45:18.182Z,3.10
2018-12-04T16:47:45.591Z,2.87
2018-12-04T16:50:13.001Z,3.07
2018-12-04T16:52:40.424Z,3.20
2018-12-04T16:55:07.885Z,2.63
2018-12-04T16:57:35.376Z,4.07
2018-12-04T17:00:03.386Z,4.07
2018-12-04T17:02:30.795Z,4.30
2018-12-04T17:04:58.235Z,3.37
2018-12-04T17:07:25.677Z,4.00
2018-12-04T17:09:53.152Z,3.60
2018-12-04T17:12:20.562Z,3.33
2018-12-04T17:14:47.987Z,4.27
2018-12-04T17:17:15.446Z,3.97
2018-12-04T17:19:42.864Z,3.20
2018-12-04T17:22:10.290Z,3.90
2018-12-04T17:24:37.717Z,3.93
2018-12-04T17:27:05.136Z,4.70
2018-12-04T17:29:32.568Z,3.90
2018-12-04T17:31:59.995Z,3.70
2018-12-04T17:34:27.413Z,3.80
2018-12-04T17:36:54.815Z,4.33
2018-12-04T17:39:22.220Z,4.50
2018-12-04T17:41:49.963Z,4.13
2018-12-04T17:44:17.397Z,4.70
2018-12-04T17:46:44.914Z,4.30
2018-12-04T17:49:12.303Z,3.70
2018-12-04T17:51:39.686Z,4.27
2018-12-04T17:54:07.118Z,4.20
2018-12-04T17:56:34.533Z,4.47
2018-12-04T17:59:01.948Z,4.83
2018-12-04T18:01:29.495Z,5.13
2018-12-04T18:03:56.918Z,4.43
2018-12-04T18:06:24.302Z,4.27
2018-12-04T18:08:51.769Z,4.70
2018-12-04T18:11:19.383Z,5.40
2018-12-04T18:13:46.818Z,5.10
2018-12-04T18:16:14.261Z,5.10
2018-12-04T18:18:41.677Z,5.50
2018-12-04T18:21:09.092Z,4.63
2018-12-04T18:23:36.661Z,5.50
2018-12-04T18:26:04.054Z,4.77
2018-12-04T18:28:31.476Z,5.03
2018-12-04T18:30:59.032Z,5.43
2018-12-04T18:33:26.484Z,4.67
2018-12-04T18:35:53.902Z,4.77
2018-12-04T18:38:21.355Z,5.67
2018-12-04T18:40:48.903Z,5.17
2018-12-04T18:43:16.330Z,7.77
2018-12-04T18:45:43.771Z,6.50
2018-12-04T18:48:11.168Z,5.63
2018-12-04T18:50:38.623Z,5.27
2018-12-04T18:53:06.013Z,5.97
2018-12-04T18:55:33.461Z,7.17
2018-12-04T18:58:00.919Z,9.30
2018-12-04T19:00:28.469Z,8.87
2018-12-04T19:02:56.033Z,6.40
2018-12-04T19:05:23.541Z,10.07
2018-12-04T19:07:51.289Z,5.80
2018-12-04T19:10:18.869Z,6.00
2018-12-04T19:12:46.509Z,7.20
2018-12-04T19:15:13.917Z,6.40
2018-12-04T19:17:41.510Z,5.70
2018-12-04T19:20:08.902Z,6.10
2018-12-04T19:22:36.527Z,6.20
2018-12-04T19:25:04.124Z,6.27
2018-12-04T19:27:31.561Z,5.77
2018-12-04T19:29:58.990Z,5.83
2018-12-04T19:32:26.455Z,5.57
2018-12-04T19:34:54.042Z,5.70
2018-12-04T19:37:21.462Z,4.90
2018-12-04T19:39:48.924Z,6.03
2018-12-04T19:42:16.327Z,5.10
2018-12-04T19:44:43.756Z,7.17
2018-12-04T19:47:11.173Z,17.77
2018-12-04T19:49:38.569Z,15.87
2018-12-04T19:52:06.040Z,8.63
2018-12-04T19:54:33.525Z,10.57
2018-12-04T19:57:00.927Z,8.50
2018-12-04T19:59:28.359Z,7.63
2018-12-04T20:01:55.954Z,7.50
2018-12-04T20:04:23.376Z,7.43
2018-12-04T20:06:50.784Z,8.07
2018-12-04T20:09:18.213Z,7.90
2018-12-04T20:11:45.679Z,8.17
2018-12-04T20:14:13.107Z,8.03
2018-12-04T20:16:40.724Z,8.10
2018-12-04T20:19:08.147Z,8.10
2018-12-04T20:21:35.872Z,7.70
2018-12-04T20:24:03.518Z,7.33
2018-12-04T20:26:31.152Z,7.80
2018-12-04T20:28:58.643Z,8.03
2018-12-04T20:31:26.069Z,7.80
2018-12-04T20:33:53.680Z,8.03
2018-12-04T20:36:21.112Z,8.13
2018-12-04T20:38:48.905Z,8.70
2018-12-04T20:41:16.435Z,9.17
2018-12-04T20:43:43.880Z,8.63
2018-12-04T20:46:11.354Z,7.87
2018-12-04T20:48:38.771Z,9.60
2018-12-04T20:51:06.198Z,9.00
2018-12-04T20:53:33.628Z,8.60
2018-12-04T20:56:01.047Z,8.40
2018-12-04T20:58:28.468Z,8.73
2018-12-04T21:00:55.898Z,8.00
2018-12-04T21:03:23.291Z,8.00
2018-12-04T21:05:50.754Z,9.00
2018-12-04T21:08:18.202Z,8.87
2018-12-04T21:10:45.643Z,8.03
2018-12-04T21:13:14.617Z,8.17
2018-12-04T21:15:42.310Z,8.67
2018-12-04T21:18:09.777Z,8.50
2018-12-04T21:20:37.276Z,8.63
2018-12-04T21:23:04.713Z,9.17
2018-12-04T21:25:32.141Z,9.97
2018-12-04T21:28:05.489Z,8.90
2018-12-04T21:30:38.705Z,8.20
2018-12-04T21:33:11.813Z,9.63
2018-12-04T21:35:44.914Z,9.33
2018-12-04T21:38:18.001Z,11.90
2018-12-04T21:40:54.949Z,9.60
2018-12-04T21:45:31.188Z,8.50
2018-12-04T21:48:05.542Z,10.20
2018-12-04T21:50:32.972Z,11.93
2018-12-04T21:53:00.391Z,10.90
2018-12-04T21:55:27.813Z,11.43
2018-12-04T21:57:55.282Z,11.00
2018-12-04T22:00:22.692Z,11.73
2018-12-04T22:02:50.178Z,10.90
2018-12-04T22:05:17.714Z,10.90
2018-12-04T22:07:45.129Z,12.27
2018-12-04T22:10:12.562Z,11.67
2018-12-04T22:12:39.951Z,11.53
2018-12-04T22:15:07.493Z,11.43
2018-12-04T22:17:35.039Z,11.10
2018-12-04T22:20:02.551Z,11.37
2018-12-04T22:22:30.154Z,11.70
2018-12-04T22:24:57.680Z,10.80
2018-12-04T22:27:25.101Z,11.17
2018-12-04T22:29:52.511Z,12.27
2018-12-04T22:32:19.989Z,12.50
2018-12-04T22:34:47.457Z,10.50
2018-12-04T22:37:14.955Z,11.00
2018-12-04T22:39:42.358Z,10.90
2018-12-04T22:42:09.767Z,10.67
2018-12-04T22:44:37.503Z,10.63
2018-12-04T22:47:06.476Z,10.53
2018-12-04T22:49:34.033Z,10.90
2018-12-04T22:52:01.737Z,10.50
2018-12-04T22:54:29.252Z,9.63
2018-12-04T22:56:56.705Z,9.70
2018-12-04T22:59:24.279Z,10.50
2018-12-04T23:01:51.761Z,9.30
2018-12-04T23:04:19.157Z,10.33
2018-12-04T23:06:46.621Z,10.20
2018-12-04T23:09:14.051Z,9.67
2018-12-04T23:11:41.671Z,9.13
2018-12-04T23:14:09.054Z,8.80
2018-12-04T23:16:36.701Z,9.47
2018-12-04T23:19:04.277Z,10.70
2018-12-04T23:21:31.746Z,8.63
2018-12-04T23:23:59.191Z,9.93
2018-12-04T23:26:26.616Z,8.13
2018-12-04T23:28:54.078Z,10.00
2018-12-04T23:31:21.546Z,9.07
2018-12-04T23:33:49.047Z,9.00
2018-12-04T23:36:16.547Z,9.60
2018-12-04T23:38:43.964Z,9.60
2018-12-04T23:41:11.362Z,9.20
2018-12-04T23:43:38.765Z,9.80
2018-12-04T23:46:06.140Z,9.53
2018-12-04T23:48:33.554Z,9.77
2018-12-04T23:51:00.977Z,8.73
2018-12-04T23:53:28.395Z,8.77
2018-12-04T23:55:55.782Z,9.70
2018-12-04T23:58:23.204Z,8.80
